Flight Track Log - Related Links

Times and Time Zones

All times are in EDT time to prevent confusion due to time zone crossing. See the AVN30 flight status page for this flight to view local times or setup timezone preferences in your user account.

Time Position Orientation Groundspeed Altitude Reporting Facility
EDT Latitude Longitude Course Direction KTS MPH feet Rate Location/Type
Thu 01:09:00 AM -17.9320 167.9980 233° Southwest  Level FlightAware Approximate
Thu 01:10:00 AM -17.9901 167.9174 233° Southwest  Level FlightAware Approximate
Thu 01:11:00 AM -18.0482 167.8367 233° Southwest  Level FlightAware Approximate
Thu 01:12:00 AM -18.1062 167.7560 233° Southwest  Level FlightAware Approximate
Thu 01:13:00 AM -18.1642 167.6753 233° Southwest  Level FlightAware Approximate
Thu 01:14:00 AM -18.2222 167.5945 233° Southwest  Level FlightAware Approximate
Thu 01:15:00 AM -18.2801 167.5136 233° Southwest  Level FlightAware Approximate
Thu 01:16:00 AM -18.3380 167.4327 233° Southwest  Level FlightAware Approximate
Thu 01:17:00 AM -18.3958 167.3517 233° Southwest  Level FlightAware Approximate
Thu 01:18:00 AM -18.4536 167.2707 233° Southwest  Level FlightAware Approximate
Thu 01:19:00 AM -18.5114 167.1896 233° Southwest  Level FlightAware Approximate
Thu 01:20:00 AM -18.5692 167.1085 233° Southwest  Level FlightAware Approximate
Thu 01:21:00 AM -18.6269 167.0273 233° Southwest  Level FlightAware Approximate
Thu 01:22:00 AM -18.6846 166.9461 233° Southwest  Level FlightAware Approximate
Thu 01:23:00 AM -18.7422 166.8648 233° Southwest  Level FlightAware Approximate
Thu 01:24:00 AM -18.7999 166.7834 233° Southwest  Level FlightAware Approximate
Thu 01:25:00 AM -18.8574 166.7020 233° Southwest  Level FlightAware Approximate
Thu 01:26:00 AM -18.9150 166.6206 233° Southwest  Level FlightAware Approximate
Thu 01:27:00 AM -18.9725 166.5390 233° Southwest  Level FlightAware Approximate
Thu 01:28:00 AM -19.0299 166.4575 233° Southwest  Level FlightAware Approximate
Thu 01:29:00 AM -19.0874 166.3758 233° Southwest  Level FlightAware Approximate
Thu 01:30:00 AM -19.1448 166.2941 233° Southwest  Level FlightAware Approximate
Thu 01:31:00 AM -19.2022 166.2124 233° Southwest  Level FlightAware Approximate
Thu 01:32:00 AM -19.2595 166.1306 233° Southwest  Level FlightAware Approximate
Thu 01:33:00 AM -19.3168 166.0488 233° Southwest  Level FlightAware Approximate
Thu 01:34:00 AM -19.3740 165.9668 233° Southwest  Level FlightAware Approximate
Thu 01:35:00 AM -19.4312 165.8849 233° Southwest  Level FlightAware Approximate
Thu 01:36:00 AM -19.4884 165.8028 234° Southwest  Level FlightAware Approximate
Thu 01:37:00 AM -19.5456 165.7207 234° Southwest  Level FlightAware Approximate
Thu 01:38:00 AM -19.6027 165.6386 234° Southwest  Level FlightAware Approximate
Thu 01:39:00 AM -19.6597 165.5564 234° Southwest  Level FlightAware Approximate
Thu 01:40:00 AM -19.7168 165.4741 234° Southwest  Level FlightAware Approximate
Thu 01:41:00 AM -19.7738 165.3918 234° Southwest  Level FlightAware Approximate
Thu 01:42:00 AM -19.8307 165.3094 234° Southwest  Level FlightAware Approximate
Thu 01:43:00 AM -19.8877 165.2270 234° Southwest  Level FlightAware Approximate
Thu 01:44:00 AM -19.9445 165.1445 234° Southwest  Level FlightAware Approximate
Thu 01:45:00 AM -20.0177 165.0780 236° Southwest  Level Estimated
Thu 01:46:00 AM -20.0744 164.9953 234° Southwest  Level FlightAware Approximate
Thu 01:47:00 AM -20.1311 164.9125 234° Southwest  Level FlightAware Approximate
Thu 01:48:00 AM -20.1877 164.8297 234° Southwest  Level FlightAware Approximate
Thu 01:49:00 AM -20.2443 164.7468 234° Southwest  Level FlightAware Approximate
Thu 01:50:00 AM -20.3009 164.6639 234° Southwest  Level FlightAware Approximate
Thu 01:51:00 AM -20.3574 164.5809 234° Southwest  Level FlightAware Approximate
Thu 01:52:00 AM -20.4139 164.4979 234° Southwest  Level FlightAware Approximate
Thu 01:53:00 AM -20.4704 164.4148 234° Southwest  Level FlightAware Approximate
Thu 01:54:00 AM -20.5268 164.3316 234° Southwest  Level FlightAware Approximate
Thu 01:55:00 AM -20.5832 164.2484 234° Southwest  Level FlightAware Approximate
Thu 01:56:00 AM -20.6395 164.1651 234° Southwest  Level FlightAware Approximate
Thu 01:57:00 AM -20.6958 164.0817 234° Southwest  Level FlightAware Approximate
Thu 01:58:00 AM -20.7521 163.9983 234° Southwest  Level FlightAware Approximate
Thu 01:59:00 AM -20.8083 163.9148 234° Southwest  Level FlightAware Approximate
Thu 01:59:03 AM -21.6013 162.6883 235° Southwest 38,000  Level Aus ATC (Calculated)
Thu 02:01:00 AM -21.7010 162.5374 235° Southwest  Level FlightAware Approximate
Thu 02:02:00 AM -21.7521 162.4600 235° Southwest  Level FlightAware Approximate
Thu 02:02:03 AM -21.8268 162.3456 235° Southwest 38,000  Level Aus ATC (Calculated)
Thu 02:03:00 AM -21.8841 162.2581 235° Southwest 38,000  Level Aus ATC (Calculated)
Thu 02:04:00 AM -21.9351 162.1805 235° Southwest  Level FlightAware Approximate
Thu 02:05:00 AM -21.9860 162.1028 235° Southwest  Level FlightAware Approximate
Thu 02:05:54 AM -22.0503 162.0037 235° Southwest 38,000  Level Aus ATC (Calculated)
Thu 02:06:00 AM -22.0369 162.0250 235° Southwest  Level FlightAware Approximate
Thu 02:07:00 AM -22.1056 161.9191 235° Southwest  Level FlightAware Approximate
Thu 02:08:00 AM -22.1559 161.8421 235° Southwest  Level FlightAware Approximate
Thu 02:09:00 AM -22.2061 161.7650 235° Southwest  Level FlightAware Approximate
Thu 02:10:00 AM -22.2563 161.6878 235° Southwest  Level FlightAware Approximate
Thu 02:11:00 AM -22.3065 161.6106 235° Southwest  Level FlightAware Approximate
Thu 02:12:00 AM -22.3566 161.5334 235° Southwest  Level FlightAware Approximate
Thu 02:13:00 AM -22.4067 161.4561 235° Southwest  Level FlightAware Approximate
Thu 02:14:00 AM -22.4567 161.3787 235° Southwest  Level FlightAware Approximate
Thu 02:15:00 AM -22.5067 161.3013 235° Southwest  Level FlightAware Approximate
Thu 02:16:00 AM -22.5567 161.2238 235° Southwest  Level FlightAware Approximate
Thu 02:17:00 AM -22.6066 161.1463 235° Southwest  Level FlightAware Approximate
Thu 02:18:00 AM -22.6565 161.0687 235° Southwest  Level FlightAware Approximate
Thu 02:19:00 AM -22.7064 160.9911 235° Southwest  Level FlightAware Approximate
Thu 02:20:00 AM -22.7562 160.9134 235° Southwest  Level FlightAware Approximate
Thu 02:21:00 AM -22.8060 160.8356 235° Southwest  Level FlightAware Approximate
Thu 02:22:00 AM -22.8558 160.7578 235° Southwest  Level FlightAware Approximate
Thu 02:23:00 AM -22.9055 160.6799 235° Southwest  Level FlightAware Approximate
Thu 02:24:00 AM -22.9552 160.6020 235° Southwest  Level FlightAware Approximate
Thu 02:25:00 AM -23.0048 160.5240 235° Southwest  Level FlightAware Approximate
Thu 02:26:00 AM -23.0544 160.4460 235° Southwest  Level FlightAware Approximate
Thu 02:27:00 AM -23.1223 160.3864 237° Southwest  Level Estimated
Thu 02:28:00 AM -23.1716 160.3081 236° Southwest  Level FlightAware Approximate
Thu 02:29:00 AM -23.2209 160.2297 236° Southwest  Level FlightAware Approximate
Thu 02:30:00 AM -23.2701 160.1513 236° Southwest  Level FlightAware Approximate
Thu 02:31:00 AM -23.3194 160.0728 236° Southwest  Level FlightAware Approximate
Thu 02:32:00 AM -23.3685 159.9942 236° Southwest  Level FlightAware Approximate
Thu 02:33:00 AM -23.4177 159.9156 236° Southwest  Level FlightAware Approximate
Thu 02:34:00 AM -23.4667 159.8370 236° Southwest  Level FlightAware Approximate
Thu 02:35:00 AM -23.5158 159.7583 236° Southwest  Level FlightAware Approximate
Thu 02:36:00 AM -23.5648 159.6795 236° Southwest  Level FlightAware Approximate
Thu 02:37:00 AM -23.6138 159.6006 236° Southwest  Level FlightAware Approximate
Thu 02:37:00 AM -24.2617 158.5020 236° Southwest 38,000  Level Aus ATC (Calculated)
Thu 02:38:00 AM -24.3104 158.4225 236° Southwest  Level FlightAware Approximate
Thu 02:38:30 AM -24.3599 158.3414 236° Southwest 38,000  Level Aus ATC (Calculated)
Thu 02:39:00 AM -24.3588 158.3432 236° Southwest  Level FlightAware Approximate
Thu 02:40:00 AM -24.4325 158.2224 236° Southwest  Level FlightAware Approximate
Thu 02:41:00 AM -24.4808 158.1429 236° Southwest  Level FlightAware Approximate
Thu 02:42:00 AM -24.5291 158.0634 236° Southwest  Level FlightAware Approximate
Thu 02:43:00 AM -24.5773 157.9839 236° Southwest  Level FlightAware Approximate
Thu 02:44:00 AM -24.6255 157.9043 236° Southwest  Level FlightAware Approximate
Thu 02:45:00 AM -24.6737 157.8246 236° Southwest  Level FlightAware Approximate
Thu 02:45:09 AM -24.8485 157.5347 237° Southwest 38,000  Level Aus ATC (Calculated)
Thu 02:47:00 AM -24.9372 157.3868 237° Southwest  Level FlightAware Approximate
Thu 02:48:00 AM -24.9850 157.3067 237° Southwest  Level FlightAware Approximate
Thu 02:49:00 AM -25.0329 157.2265 237° Southwest  Level FlightAware Approximate
Thu 02:50:00 AM -25.0807 157.1463 237° Southwest  Level FlightAware Approximate
Thu 02:51:00 AM -25.1284 157.0661 237° Southwest  Level FlightAware Approximate
Thu 02:52:00 AM -25.1761 156.9858 237° Southwest  Level FlightAware Approximate
Thu 02:52:18 AM -25.3326 156.7218 56° Northeast 38,000  Level Aus ATC (Calculated)
Thu 02:53:33 AM -25.4289 156.5584 57° Northeast 38,000  Level Aus ATC (Calculated)
Thu 02:54:00 AM -25.4133 156.5847 237° Southwest  Level FlightAware Approximate
Thu 02:55:00 AM -25.4974 156.4418 237° Southwest  Level FlightAware Approximate
Thu 02:56:00 AM -25.5446 156.3613 237° Southwest  Level FlightAware Approximate
Thu 02:56:18 AM -25.5890 156.2856 57° Northeast 38,000  Level Aus ATC (Calculated)
Thu 02:58:00 AM -25.6690 156.1485 237° Southwest  Level FlightAware Approximate
Thu 02:59:00 AM -25.7160 156.0677 237° Southwest  Level FlightAware Approximate
Thu 02:59:12 AM -25.0382 157.2107 237° Southwest 424 488 38,000  Level Aus ATC (RADAR)
Thu 02:59:32 AM -25.0603 157.1758 235° Southwest 419 482 38,000  Level Aus ATC (RADAR)
Thu 03:00:12 AM -25.0995 157.0990 241° Southwest 427 491 38,000  Level Aus ATC (RADAR)
Thu 03:01:02 AM -25.1539 157.0086 236° Southwest 432 497 38,000  Level Aus ATC (RADAR)
Thu 03:01:42 AM -25.1988 156.9375 235° Southwest 419 482 38,000  Level Aus ATC (RADAR)
Thu 03:02:22 AM -25.2444 156.8676 234° Southwest 418 481 38,000  Level Aus ATC (RADAR)
Thu 03:02:52 AM -25.2778 156.8134 236° Southwest 420 483 38,000  Level Aus ATC (RADAR)
Thu 03:04:12 AM -25.3632 156.6673 237° Southwest 417 480 38,000  Level Aus ATC (RADAR)
Thu 03:04:31 AM -25.3856 156.6317 235° Southwest 417 480 38,000  Level Aus ATC (RADAR)
Thu 03:05:02 AM -25.4194 156.5788 235° Southwest 417 480 38,000  Level Aus ATC (RADAR)
Thu 03:05:51 AM -25.4726 156.4872 237° Southwest 417 480 38,000  Level Aus ATC (RADAR)
Thu 03:06:26 AM -25.5102 156.4232 237° Southwest 419 482 38,000  Level Aus ATC (RADAR)
Thu 03:07:13 AM -25.5570 156.3410 238° Southwest 427 491 38,000  Level FlightAware ADS-B
Thu 03:07:31 AM -25.5789 156.3030 238° Southwest 421 484 38,000  Level Aus ATC (RADAR)
Thu 03:07:51 AM -25.5900 156.2830 238° Southwest 428 493 38,000  Level FlightAware ADS-B
Thu 03:08:27 AM -25.6230 156.2270 237° Southwest 428 493 38,000  Level FlightAware ADS-B
Thu 03:08:41 AM -25.6548 156.1728 237° Southwest 428 493 38,000  Level FlightAware ADS-B
Thu 03:09:11 AM -25.6869 156.1178 237° Southwest 428 493 38,000  Level FlightAware ADS-B
Thu 03:09:41 AM -25.7196 156.0618 237° Southwest 428 493 38,000  Level FlightAware ADS-B
Thu 03:10:12 AM -25.7522 156.0058 237° Southwest 428 493 38,000  Level FlightAware ADS-B
Thu 03:10:51 AM -25.7952 155.9333 237° Southwest 428 493 38,000  Level FlightAware ADS-B
Thu 03:11:21 AM -25.8329 155.8840 230° Southwest 429 494 38,000  Level FlightAware ADS-B
Thu 03:11:52 AM -25.8653 155.8428 229° Southwest 428 493 38,000  Level FlightAware ADS-B
Thu 03:12:31 AM -25.9235 155.7688 229° Southwest 428 493 38,000  Level FlightAware ADS-B
Thu 03:13:02 AM -25.9639 155.7176 229° Southwest 427 491 38,000  Level FlightAware ADS-B
Thu 03:13:41 AM -26.0140 155.6538 229° Southwest 425 489 38,000  Level FlightAware ADS-B
Thu 03:14:12 AM -26.0546 155.6020 229° Southwest 425 489 38,000  Level FlightAware ADS-B
Thu 03:14:42 AM -26.0918 155.5544 229° Southwest 424 488 38,000  Level FlightAware ADS-B
Thu 03:15:21 AM -26.1441 155.4877 229° Southwest 423 487 38,000  Level FlightAware ADS-B
Thu 03:15:52 AM -26.1835 155.4372 229° Southwest 424 488 38,000  Level FlightAware ADS-B
Thu 03:16:22 AM -26.2213 155.3885 229° Southwest 424 488 38,000  Level FlightAware ADS-B
Thu 03:16:52 AM -26.2604 155.3385 229° Southwest 423 487 38,000  Level FlightAware ADS-B
Thu 03:17:22 AM -26.2988 155.2892 229° Southwest 425 489 38,000  Level FlightAware ADS-B
Thu 03:17:52 AM -26.3368 155.2402 229° Southwest 425 489 38,000  Level FlightAware ADS-B
Thu 03:18:22 AM -26.3751 155.1909 229° Southwest 426 490 38,000  Level FlightAware ADS-B
Thu 03:19:02 AM -26.4257 155.1255 229° Southwest 427 491 38,000  Level FlightAware ADS-B
Thu 03:19:32 AM -26.4665 155.0728 229° Southwest 428 493 38,000  Level FlightAware ADS-B
Thu 03:20:12 AM -26.5174 155.0071 229° Southwest 429 494 38,000  Level FlightAware ADS-B
Thu 03:20:42 AM -26.5572 154.9557 229° Southwest 430 495 38,000  Level FlightAware ADS-B
Thu 03:21:21 AM -26.6077 154.8904 229° Southwest 430 495 38,000  Level FlightAware ADS-B
Thu 03:21:52 AM -26.6479 154.8382 229° Southwest 431 496 38,000  Level FlightAware ADS-B
Thu 03:22:22 AM -26.6855 154.7894 229° Southwest 431 496 38,000  Level FlightAware ADS-B
Thu 03:22:52 AM -26.7222 154.7416 229° Southwest 432 497 38,000  Level FlightAware ADS-B
Thu 03:23:22 AM -26.7615 154.6905 229° Southwest 432 497 38,000  Level FlightAware ADS-B
Thu 03:23:52 AM -26.7987 154.6421 229° Southwest 431 496 38,000  Level FlightAware ADS-B
Thu 03:24:22 AM -26.8422 154.5852 229° Southwest 432 497 38,000  Level FlightAware ADS-B
Thu 03:25:01 AM -26.8940 154.5175 229° Southwest 432 497 38,000  Level FlightAware ADS-B
Thu 03:25:31 AM -26.9332 154.4662 229° Southwest 432 497 38,000  Level FlightAware ADS-B
Thu 03:26:12 AM -26.9843 154.3993 229° Southwest 431 496 38,000  Level FlightAware ADS-B
Thu 03:26:52 AM -27.0371 154.3300 229° Southwest 431 496 38,000  Level FlightAware ADS-B
Thu 03:27:22 AM -27.0753 154.2797 229° Southwest 431 496 38,000  Level FlightAware ADS-B
Thu 03:27:54 AM -27.1165 154.2257 229° Southwest 426 490 38,000  Level Aus ATC (RADAR)
Thu 03:28:02 AM -27.1275 154.2112 229° Southwest 430 495 38,000  Level FlightAware ADS-B
Thu 03:28:32 AM -27.1642 154.1629 230° Southwest 429 494 38,000  Level FlightAware ADS-B
Thu 03:29:02 AM -27.2049 154.1091 230° Southwest 429 494 38,000  Level FlightAware ADS-B
Thu 03:29:32 AM -27.2435 154.0580 230° Southwest 427 491 38,000  Level FlightAware ADS-B
Thu 03:30:02 AM -27.2818 154.0074 230° Southwest 427 491 38,000  Level FlightAware ADS-B
Thu 03:30:32 AM -27.3197 153.9574 230° Southwest 427 491 38,000  Level FlightAware ADS-B
Thu 03:31:07 AM -27.3657 153.8964 230° Southwest 427 491 38,000  Level FlightAware ADS-B
Thu 03:31:42 AM -27.4093 153.8384 230° Southwest 427 491 38,000  Level FlightAware ADS-B
Thu 03:32:12 AM -27.4457 153.7899 230° Southwest 427 491 38,000  Level FlightAware ADS-B
Thu 03:32:42 AM -27.4856 153.7368 230° Southwest 427 491 38,000  Level FlightAware ADS-B
Thu 03:33:12 AM -27.5244 153.6852 230° Southwest 428 493 38,000  Level FlightAware ADS-B
Thu 03:33:42 AM -27.5622 153.6348 230° Southwest 427 491 38,000  Level FlightAware ADS-B
Thu 03:34:12 AM -27.5980 153.5870 230° Southwest 428 493 38,000  Level FlightAware ADS-B
Thu 03:34:52 AM -27.6517 153.5152 230° Southwest 429 494 38,000  Level FlightAware ADS-B
Thu 03:35:22 AM -27.6899 153.4657 229° Southwest 431 496 38,000  Level FlightAware ADS-B
Thu 03:35:52 AM -27.7348 153.4207 222° Southwest 435 501 38,000  Level FlightAware ADS-B
Thu 03:36:22 AM -27.7825 153.3749 220° Southwest 436 502 38,000  Level FlightAware ADS-B
Thu 03:36:52 AM -27.8266 153.3325 220° Southwest 435 501 38,000  Level FlightAware ADS-B
Thu 03:37:22 AM -27.8737 153.2870 220° Southwest 436 502 38,000  Level FlightAware ADS-B
Thu 03:37:52 AM -27.9197 153.2426 221° Southwest 437 503 38,000  Level FlightAware ADS-B
Thu 03:38:22 AM -27.9661 153.1976 221° Southwest 437 503 38,000  Level FlightAware ADS-B
Thu 03:38:52 AM -28.0117 153.1532 221° Southwest 436 502 38,000  Level FlightAware ADS-B
Thu 03:39:03 AM -28.0285 153.1368 221° Southwest 430 495 38,000  Level FlightAware ADS-B
Thu 03:39:31 AM -28.0723 153.0943 221° Southwest 430 495 38,000  Level FlightAware ADS-B
Thu 03:40:02 AM -28.1182 153.0495 221° Southwest 435 501 38,000  Level FlightAware ADS-B
Thu 03:40:32 AM -28.1626 153.0063 221° Southwest 432 497 38,000  Level FlightAware ADS-B
Thu 03:41:02 AM -28.2074 152.9626 221° Southwest 431 496 38,000  Level FlightAware ADS-B
Thu 03:41:32 AM -28.2549 152.9161 221° Southwest 431 496 38,000  Level FlightAware ADS-B
Thu 03:42:02 AM -28.3003 152.8717 221° Southwest 430 495 38,000  Level FlightAware ADS-B
Thu 03:42:32 AM -28.3454 152.8277 221° Southwest 426 490 38,000  Level FlightAware ADS-B
Thu 03:43:02 AM -28.3880 152.7858 221° Southwest 424 488 38,000  Level FlightAware ADS-B
Thu 03:43:32 AM -28.4318 152.7428 221° Southwest 423 487 38,000  Level FlightAware ADS-B
Thu 03:44:02 AM -28.4771 152.6983 221° Southwest 424 488 38,000  Level FlightAware ADS-B
Thu 03:44:32 AM -28.5230 152.6531 221° Southwest 425 489 38,000  Level FlightAware ADS-B
Thu 03:45:02 AM -28.5676 152.6091 221° Southwest 426 490 38,000  Level FlightAware ADS-B
Thu 03:45:32 AM -28.6108 152.5666 221° Southwest 425 489 38,000  Level FlightAware ADS-B
Thu 03:46:02 AM -28.6564 152.5216 221° Southwest 423 487 38,000  Level FlightAware ADS-B
Thu 03:46:32 AM -28.6992 152.4794 221° Southwest 422 486 38,000  Level FlightAware ADS-B
Thu 03:47:02 AM -28.7394 152.4397 221° Southwest 422 486 38,000  Level FlightAware ADS-B
Thu 03:47:32 AM -28.7887 152.3908 221° Southwest 424 488 38,000  Level FlightAware ADS-B
Thu 03:48:02 AM -28.8335 152.3463 221° Southwest 425 489 38,000  Level FlightAware ADS-B
Thu 03:48:42 AM -28.8916 152.2887 221° Southwest 425 489 38,000  Level FlightAware ADS-B
Thu 03:49:12 AM -28.9371 152.2434 221° Southwest 424 488 38,000  Level FlightAware ADS-B
Thu 03:49:52 AM -28.9954 152.1853 221° Southwest 423 487 38,000  Level FlightAware ADS-B
Thu 03:50:28 AM -29.0435 152.1373 221° Southwest 423 487 38,000  Level FlightAware ADS-B
Thu 03:50:37 AM -29.0627 152.1182 221° Southwest 422 486 38,000  Level FlightAware ADS-B
Thu 03:50:46 AM -29.0771 152.1036 221° Southwest 422 486 38,000  Level FlightAware ADS-B
Thu 03:51:00 AM -29.0969 152.0839 221° Southwest 416 479 38,000  Level FlightAware ADS-B
Thu 03:51:30 AM -29.1416 152.0393 221° Southwest 422 486 38,000  Level FlightAware ADS-B
Thu 03:51:48 AM -29.1678 152.0130 221° Southwest 416 479 38,000  Level FlightAware ADS-B
Thu 03:52:21 AM -29.2152 151.9655 221° Southwest 420 483 38,000  Level FlightAware ADS-B
Thu 03:52:52 AM -29.2609 151.9197 221° Southwest 420 483 38,000  Level FlightAware ADS-B
Thu 03:53:31 AM -29.3181 151.8623 221° Southwest 420 483 38,000  Level FlightAware ADS-B
Thu 03:54:01 AM -29.3593 151.8209 221° Southwest 421 484 38,000  Level FlightAware ADS-B
Thu 03:54:32 AM -29.4058 151.7740 221° Southwest 422 486 38,000  Level FlightAware ADS-B
Thu 03:55:11 AM -29.4651 151.7142 221° Southwest 423 487 38,000  Level FlightAware ADS-B
Thu 03:55:41 AM -29.5049 151.6740 221° Southwest 424 488 38,000  Level FlightAware ADS-B
Thu 03:56:12 AM -29.5556 151.6271 219° Southwest 426 490 38,000  Level FlightAware ADS-B
Thu 03:56:42 AM -29.5955 151.5910 218° Southwest 424 488 38,000  Level FlightAware ADS-B
Thu 03:57:21 AM -29.6624 151.5305 218° Southwest 422 486 38,000  Level FlightAware ADS-B
Thu 03:57:51 AM -29.7072 151.4900 218° Southwest 421 484 38,000  Level FlightAware ADS-B
Thu 03:58:21 AM -29.7480 151.4532 218° Southwest 419 482 38,000  Level FlightAware ADS-B
Thu 03:58:51 AM -29.7947 151.4107 218° Southwest 419 482 38,000  Level FlightAware ADS-B
Thu 03:59:21 AM -29.8455 151.3646 218° Southwest 419 482 38,000  Level FlightAware ADS-B
Thu 03:59:52 AM -29.8812 151.3319 218° Southwest 420 483 38,000  Level FlightAware ADS-B
Thu 04:00:32 AM -29.9525 151.2670 218° Southwest 421 484 38,000  Level FlightAware ADS-B
Thu 04:01:12 AM -30.0145 151.2105 218° Southwest 422 486 38,000  Level FlightAware ADS-B
Thu 04:01:52 AM -30.0755 151.1550 218° Southwest 422 486 38,000  Level FlightAware ADS-B
Thu 04:02:22 AM -30.1214 151.1130 218° Southwest 422 486 38,000  Level FlightAware ADS-B
Thu 04:02:58 AM -30.1766 151.0624 218° Southwest 422 486 38,000  Level FlightAware ADS-B
Thu 04:03:28 AM -30.2230 151.0198 218° Southwest 421 484 38,000  Level FlightAware ADS-B
Thu 04:03:59 AM -30.2570 150.9890 218° Southwest 421 484 38,000  Level FlightAware ADS-B
Thu 04:04:35 AM -30.3040 150.9470 218° Southwest 421 484 38,000 -85 Level FlightAware ADS-B
Thu 04:05:10 AM -30.3770 150.8770 218° Southwest 422 486 37,900  Descending Aus ATC (RADAR)
Thu 04:05:11 AM -30.3510 150.9040 218° Southwest 421 484 38,000 162 Climbing FlightAware ADS-B
Thu 04:05:47 AM -30.3980 150.8620 218° Southwest 421 484 38,000  Level FlightAware ADS-B
Thu 04:06:23 AM -30.4450 150.8190 218° Southwest 421 484 38,000  Level FlightAware ADS-B
Thu 04:06:59 AM -30.4920 150.7760 218° Southwest 421 484 38,000  Level FlightAware ADS-B
Thu 04:07:35 AM -30.5390 150.7340 218° Southwest 421 484 38,000  Level FlightAware ADS-B
Thu 04:08:11 AM -30.5860 150.6910 218° Southwest 421 484 38,000  Level FlightAware ADS-B
Thu 04:08:47 AM -30.6330 150.6490 218° Southwest 421 484 38,000  Level FlightAware ADS-B
Thu 04:09:23 AM -30.6800 150.6060 218° Southwest 421 484 38,000  Level FlightAware ADS-B
Thu 04:10:00 AM -30.7280 150.5620 218° Southwest 421 484 38,000 -79 Level FlightAware ADS-B
Thu 04:10:39 AM -30.8720 150.4182 218° Southwest 409 471 37,900 -111 Descending Aus ATC (RADAR)
Thu 04:10:54 AM -30.8943 150.3974 219° Southwest 410 472 37,900 261 Level Aus ATC (RADAR)
Thu 04:11:02 AM -30.9030 150.3890 219° Southwest 402 463 38,000  Climbing FlightAware ADS-B
Thu 04:11:34 AM -30.9528 150.3422 219° Southwest 409 471 37,900  Descending Aus ATC (RADAR)
Thu 04:11:58 AM -30.9760 150.3210 219° Southwest 402 463 38,000 105 Climbing FlightAware ADS-B
Thu 04:12:31 AM -31.0360 150.2640 219° Southwest 409 471 38,000 -94 Level FlightAware ADS-B
Thu 04:13:02 AM -31.0805 150.2229 219° Southwest 403 464 37,900  Descending Aus ATC (RADAR)
Thu 04:13:11 AM -31.0940 150.2100 219° Southwest 410 472 38,000 150 Climbing FlightAware ADS-B
Thu 04:13:42 AM -31.1380 150.1690 219° Southwest 410 472 38,000  Level FlightAware ADS-B
Thu 04:14:16 AM -31.1890 150.1210 219° Southwest 410 472 38,000  Level FlightAware ADS-B
Thu 04:14:56 AM -31.2500 150.0630 219° Southwest 412 474 38,000  Level FlightAware ADS-B
Thu 04:15:26 AM -31.2950 150.0210 219° Southwest 412 474 38,000  Level FlightAware ADS-B
Thu 04:16:01 AM -31.3470 149.9720 219° Southwest 412 474 38,000  Level FlightAware ADS-B
Thu 04:16:38 AM -31.3990 149.9230 219° Southwest 410 472 38,000  Level FlightAware ADS-B
Thu 04:17:16 AM -31.4570 149.8670 219° Southwest 401 461 38,000  Level FlightAware ADS-B
Thu 04:18:03 AM -31.5250 149.8020 219° Southwest 400 460 38,000  Level FlightAware ADS-B
Thu 04:18:38 AM -31.5750 149.7550 219° Southwest 399 459 38,000  Level FlightAware ADS-B
Thu 04:19:09 AM -31.6200 149.7120 219° Southwest 396 456 38,000  Level FlightAware ADS-B
Thu 04:19:47 AM -31.6760 149.6580 219° Southwest 400 460 38,000 -83 Level FlightAware ADS-B
Thu 04:20:21 AM -31.7236 149.6134 219° Southwest 392 451 37,900  Descending Aus ATC (RADAR)
Thu 04:20:23 AM -31.7270 149.6100 219° Southwest 396 456 38,000 158 Climbing FlightAware ADS-B
Thu 04:20:59 AM -31.7750 149.5640 219° Southwest 394 453 38,000  Level FlightAware ADS-B
Thu 04:21:33 AM -31.8260 149.5150 219° Southwest 393 452 38,000  Level FlightAware ADS-B
Thu 04:22:03 AM -31.8690 149.4730 220° Southwest 392 451 38,000 -90 Level FlightAware ADS-B
Thu 04:22:40 AM -31.9208 149.4237 220° Southwest 387 445 37,900  Descending Aus ATC (RADAR)
Thu 04:22:40 AM -31.9180 149.4260 220° Southwest 392 451 38,000 176 Climbing FlightAware ADS-B
Thu 04:23:14 AM -31.9670 149.3790 219° Southwest 385 443 38,000  Level FlightAware ADS-B
Thu 04:23:54 AM -32.0230 149.3250 219° Southwest 384 442 38,000  Level FlightAware ADS-B
Thu 04:24:24 AM -32.0650 149.2840 220° Southwest 384 442 38,000  Level FlightAware ADS-B
Thu 04:24:58 AM -32.1140 149.2370 219° Southwest 394 453 38,000  Level FlightAware ADS-B
Thu 04:25:34 AM -32.1630 149.1890 220° Southwest 395 455 38,000 -269 Level FlightAware ADS-B
Thu 04:26:05 AM -32.2083 149.1458 220° Southwest 391 450 37,700  Descending Aus ATC (RADAR)
Thu 04:26:14 AM -32.2190 149.1350 220° Southwest 396 456 38,000 462 Climbing FlightAware ADS-B
Thu 04:26:44 AM -32.2630 149.0930 219° Southwest 397 457 38,000  Level FlightAware ADS-B
Thu 04:27:19 AM -32.3130 149.0440 220° Southwest 397 457 38,000  Level FlightAware ADS-B
Thu 04:27:59 AM -32.3690 148.9890 220° Southwest 396 456 38,000  Level FlightAware ADS-B
Thu 04:28:34 AM -32.4190 148.9400 220° Southwest 397 457 38,000  Level FlightAware ADS-B
Thu 04:29:04 AM -32.4610 148.8990 219° Southwest 396 456 38,000  Level FlightAware ADS-B
Thu 04:29:41 AM -32.5110 148.8510 219° Southwest 394 453 38,000  Level FlightAware ADS-B
Thu 04:30:19 AM -32.5670 148.7960 220° Southwest 394 453 38,000  Level FlightAware ADS-B
Thu 04:30:49 AM -32.6080 148.7550 220° Southwest 386 444 38,000 -514 Level FlightAware ADS-B
Thu 04:30:54 AM -32.6172 148.7460 220° Southwest 389 448 37,700  Descending Aus ATC (RADAR)
Thu 04:31:24 AM -32.6570 148.7070 220° Southwest 384 442 38,000 257 Climbing FlightAware ADS-B
Thu 04:32:04 AM -32.7130 148.6520 220° Southwest 382 440 38,000  Level FlightAware ADS-B
Thu 04:32:34 AM -32.7540 148.6110 220° Southwest 380 437 38,000 -545 Level FlightAware ADS-B
Thu 04:32:37 AM -32.7608 148.6048 220° Southwest 389 448 37,700  Descending Aus ATC (RADAR)
Thu 04:33:09 AM -32.8020 148.5640 220° Southwest 380 437 38,000  Climbing FlightAware ADS-B
Thu 04:33:14 AM -32.8104 148.5558 220° Southwest 384 442 37,700  Descending Aus ATC (RADAR)
Thu 04:33:44 AM -32.8500 148.5170 219° Southwest 380 437 38,000  Climbing FlightAware ADS-B
Thu 04:34:22 AM -32.9046 148.4625 219° Southwest 385 443 37,700  Descending Aus ATC (RADAR)
Thu 04:34:24 AM -32.9050 148.4620 219° Southwest 378 435 38,000  Climbing FlightAware ADS-B
Thu 04:34:57 AM -32.9521 148.4151 219° Southwest 384 442 37,700  Descending Aus ATC (RADAR)
Thu 04:34:59 AM -32.9520 148.4150 219° Southwest 383 441 38,000 563 Climbing FlightAware ADS-B
Thu 04:35:29 AM -32.9940 148.3740 219° Southwest 383 441 38,000 -277 Level FlightAware ADS-B
Thu 04:36:04 AM -33.0421 148.3260 219° Southwest 379 436 37,700  Descending Aus ATC (RADAR)
Thu 04:36:09 AM -33.0480 148.3200 219° Southwest 381 438 38,000 450 Climbing FlightAware ADS-B
Thu 04:36:44 AM -33.0950 148.2730 220° Southwest 381 438 38,000  Level FlightAware ADS-B
Thu 04:37:14 AM -33.1360 148.2330 219° Southwest 378 435 38,000  Level FlightAware ADS-B
Thu 04:37:49 AM -33.1860 148.1870 219° Southwest 384 442 38,000 -462 Level FlightAware ADS-B
Thu 04:37:53 AM -33.1931 148.1799 219° Southwest 383 441 37,700 -308 Descending Aus ATC (RADAR)
Thu 04:38:28 AM -33.2423 148.1348 219° Southwest 381 438 37,800 500 Climbing Aus ATC (RADAR)
Thu 04:38:29 AM -33.2420 148.1350 219° Southwest 385 443 38,000 333 Climbing FlightAware ADS-B
Thu 04:39:04 AM -33.2900 148.0900 218° Southwest 386 444 38,000  Level FlightAware ADS-B
Thu 04:39:34 AM -33.3350 148.0490 217° Southwest 387 445 38,000 -269 Level FlightAware ADS-B
Thu 04:40:11 AM -33.3886 147.9994 217° Southwest 387 445 37,700  Descending Aus ATC (RADAR)
Thu 04:40:19 AM -33.3940 147.9940 217° Southwest 388 447 38,000 419 Climbing FlightAware ADS-B
Thu 04:40:54 AM -33.4460 147.9460 218° Southwest 389 448 38,000  Level FlightAware ADS-B
Thu 04:41:29 AM -33.4980 147.8980 218° Southwest 389 448 38,000  Level FlightAware ADS-B
Thu 04:42:09 AM -33.5540 147.8460 218° Southwest 389 448 38,000  Level FlightAware ADS-B
Thu 04:42:45 AM -33.6040 147.7990 218° Southwest 388 447 38,000  Level FlightAware ADS-B
Thu 04:43:24 AM -33.6600 147.7470 218° Southwest 386 444 38,000  Level FlightAware ADS-B
Thu 04:43:54 AM -33.7030 147.7070 218° Southwest 386 444 38,000  Level FlightAware ADS-B
Thu 04:44:29 AM -33.7520 147.6610 218° Southwest 378 435 38,000  Level FlightAware ADS-B
Thu 04:45:04 AM -33.8010 147.6140 219° Southwest 377 434 38,000  Level FlightAware ADS-B
Thu 04:45:38 AM -33.8490 147.5690 218° Southwest 376 433 38,000  Level FlightAware ADS-B
Thu 04:46:14 AM -33.8980 147.5230 218° Southwest 375 432 38,000  Level FlightAware ADS-B
Thu 04:46:54 AM -33.9540 147.4700 218° Southwest 375 432 38,000  Level FlightAware ADS-B
Thu 04:47:24 AM -33.9960 147.4310 218° Southwest 375 432 38,000 -182 Level FlightAware ADS-B
Thu 04:47:27 AM -34.0017 147.4258 218° Southwest 378 435 37,900  Descending Aus ATC (RADAR)
Thu 04:47:59 AM -34.0440 147.3850 218° Southwest 375 432 38,000 90 Climbing FlightAware ADS-B
Thu 04:48:34 AM -34.0940 147.3380 218° Southwest 374 430 38,000  Level FlightAware ADS-B
Thu 04:49:09 AM -34.1420 147.2920 218° Southwest 376 433 38,000  Level FlightAware ADS-B
Thu 04:49:44 AM -34.1910 147.2460 218° Southwest 377 434 38,000  Level FlightAware ADS-B
Thu 04:50:19 AM -34.2380 147.2010 218° Southwest 379 436 38,000  Level FlightAware ADS-B
Thu 04:50:54 AM -34.2880 147.1540 218° Southwest 390 449 38,000  Level FlightAware ADS-B
Thu 04:51:29 AM -34.3380 147.1060 218° Southwest 392 451 38,000 -88 Level FlightAware ADS-B
Thu 04:52:02 AM -34.3866 147.0604 218° Southwest 392 451 37,900  Descending Aus ATC (RADAR)
Thu 04:52:04 AM -34.3880 147.0580 218° Southwest 394 453 38,000 162 Climbing FlightAware ADS-B
Thu 04:52:39 AM -34.4380 147.0100 218° Southwest 395 455 38,000 -500 Level FlightAware ADS-B
Thu 04:52:40 AM -34.4415 147.0077 218° Southwest 391 450 37,700 -162 Descending Aus ATC (RADAR)
Thu 04:53:16 AM -34.4938 146.9576 218° Southwest 394 453 37,900 462 Climbing Aus ATC (RADAR)
Thu 04:53:19 AM -34.4950 146.9560 218° Southwest 396 456 38,000 182 Climbing FlightAware ADS-B
Thu 04:53:49 AM -34.5380 146.9140 219° Southwest 396 456 38,000  Level FlightAware ADS-B
Thu 04:54:24 AM -34.5900 146.8650 218° Southwest 395 455 38,000  Level FlightAware ADS-B
Thu 04:54:59 AM -34.6390 146.8170 218° Southwest 395 455 38,000 -162 Level FlightAware ADS-B
Thu 04:55:01 AM -34.6441 146.8130 218° Southwest 393 452 37,900 -450 Descending Aus ATC (RADAR)
Thu 04:55:39 AM -34.7005 146.7605 218° Southwest 392 451 37,700 158 Descending Aus ATC (RADAR)
Thu 04:55:39 AM -34.6970 146.7610 218° Southwest 392 451 38,000 600 Climbing FlightAware ADS-B
Thu 04:56:09 AM -34.7380 146.7220 218° Southwest 390 449 38,000  Level FlightAware ADS-B
Thu 04:56:44 AM -34.7870 146.6740 219° Southwest 389 448 38,000  Level FlightAware ADS-B
Thu 04:57:20 AM -34.8370 146.6260 218° Southwest 389 448 38,000  Level FlightAware ADS-B
Thu 04:57:54 AM -34.8870 146.5770 219° Southwest 388 447 38,000  Level FlightAware ADS-B
Thu 04:58:28 AM -34.9350 146.5310 218° Southwest 381 438 38,000  Level FlightAware ADS-B
Thu 04:59:04 AM -34.9850 146.4820 219° Southwest 379 436 38,000  Level FlightAware ADS-B
Thu 04:59:44 AM -35.0390 146.4290 219° Southwest 377 434 38,000  Level FlightAware ADS-B
Thu 05:00:14 AM -35.0800 146.3890 219° Southwest 375 432 38,000  Level FlightAware ADS-B
Thu 05:00:49 AM -35.1280 146.3420 219° Southwest 373 429 38,000  Level FlightAware ADS-B
Thu 05:01:29 AM -35.1820 146.2890 219° Southwest 371 427 38,000  Level FlightAware ADS-B
Thu 05:01:59 AM -35.2240 146.2480 219° Southwest 372 428 38,000  Level FlightAware ADS-B
Thu 05:02:34 AM -35.2730 146.2000 219° Southwest 377 434 38,000  Level FlightAware ADS-B
Thu 05:03:09 AM -35.3180 146.1550 219° Southwest 380 437 38,000  Level FlightAware ADS-B
Thu 05:03:44 AM -35.3650 146.1090 219° Southwest 381 438 38,000  Level FlightAware ADS-B
Thu 05:04:19 AM -35.4180 146.0570 219° Southwest 381 438 38,000 -182 Level FlightAware ADS-B
Thu 05:04:50 AM -35.4639 146.0128 219° Southwest 385 443 37,800  Descending Aus ATC (RADAR)
Thu 05:04:54 AM -35.4670 146.0080 219° Southwest 381 438 38,000 279 Climbing FlightAware ADS-B
Thu 05:05:33 AM -35.5210 145.9550 219° Southwest 381 438 38,000  Level FlightAware ADS-B
Thu 05:06:06 AM -35.5670 145.9090 219° Southwest 389 448 38,000  Level FlightAware ADS-B
Thu 05:06:41 AM -35.6150 145.8610 219° Southwest 390 449 38,000  Level FlightAware ADS-B
Thu 05:07:13 AM -35.6653 145.8141 219° Southwest 387 445 38,000  Level Aus ATC (RADAR)
Thu 05:07:22 AM -35.6740 145.8030 219° Southwest 390 449 38,000  Level FlightAware ADS-B
Thu 05:07:57 AM -35.7240 145.7530 219° Southwest 389 448 38,000  Level FlightAware ADS-B
Thu 05:08:32 AM -35.7730 145.7040 219° Southwest 391 450 38,000  Level FlightAware ADS-B
Thu 05:08:33 AM -35.7776 145.7027 219° Southwest 387 445 38,000  Level Aus ATC (RADAR)
Thu 05:09:07 AM -35.8220 145.6550 219° Southwest 392 451 38,000 -333 Level FlightAware ADS-B
Thu 05:09:09 AM -35.8268 145.6510 219° Southwest 389 448 37,800  Descending Aus ATC (RADAR)
Thu 05:09:42 AM -35.8710 145.6060 219° Southwest 392 451 38,000 176 Climbing FlightAware ADS-B
Thu 05:10:17 AM -35.9190 145.5570 220° Southwest 393 452 38,000  Level FlightAware ADS-B
Thu 05:10:53 AM -35.9700 145.5070 218° Southwest 393 452 38,000  Level FlightAware ADS-B
Thu 05:11:27 AM -36.0110 145.4650 220° Southwest 392 451 38,000  Level FlightAware ADS-B
Thu 05:12:00 AM -36.0650 145.4110 219° Southwest 392 451 38,000  Level FlightAware ADS-B
Thu 05:12:34 AM -36.1140 145.3610 219° Southwest 392 451 38,000 -281 Level FlightAware ADS-B
Thu 05:13:04 AM -36.1563 145.3193 219° Southwest 390 449 37,700 -514 Descending Aus ATC (RADAR)
Thu 05:13:09 AM -36.1630 145.3110 219° Southwest 383 441 37,700 -2,100 Level FlightAware ADS-B
Thu 05:13:44 AM -36.2115 145.2625 219° Southwest 389 448 36,300 -2,229 Descending Aus ATC (RADAR)
Thu 05:13:44 AM -36.2100 145.2630 219° Southwest 380 437 36,400 -3,086 Climbing FlightAware ADS-B
Thu 05:14:19 AM -36.2600 145.2132 219° Southwest 391 450 34,500 -3,257 Descending Aus ATC (RADAR)
Thu 05:14:19 AM -36.2600 145.2120 219° Southwest 393 452 34,500 -2,833 Level FlightAware ADS-B
Thu 05:14:55 AM -36.3080 145.1630 219° Southwest 394 453 32,800 -2,571 Descending FlightAware ADS-B
Thu 05:15:29 AM -36.3530 145.1180 219° Southwest 379 436 31,500 -2,261 Descending FlightAware ADS-B
Thu 05:16:04 AM -36.4010 145.0690 219° Southwest 378 435 30,200 -2,657 Descending FlightAware ADS-B
Thu 05:16:39 AM -36.4530 145.0180 218° Southwest 385 443 28,400 -3,055 Descending FlightAware ADS-B
Thu 05:16:59 AM -36.4860 144.9970 207° Southwest 417 480 27,400 -3,273 Descending FlightAware ADS-B
Thu 05:17:34 AM -36.5550 144.9690 198° South 439 505 25,400 -2,609 Descending FlightAware ADS-B
Thu 05:18:08 AM -36.6203 144.9441 198° South 429 494 24,400 -1,886 Descending Aus ATC (RADAR)
Thu 05:18:09 AM -36.6210 144.9440 198° South 421 484 24,300 -2,667 Descending FlightAware ADS-B
Thu 05:18:44 AM -36.6850 144.9190 197° South 408 470 22,800 -3,039 Descending FlightAware ADS-B
Thu 05:19:26 AM -36.7590 144.8900 197° South 419 482 20,400 -2,961 Descending FlightAware ADS-B
Thu 05:20:01 AM -36.8220 144.8670 196° South 401 461 19,000 -2,240 Descending FlightAware ADS-B
Thu 05:20:41 AM -36.8890 144.8410 197° South 373 429 17,600 -1,886 Descending FlightAware ADS-B
Thu 05:21:11 AM -36.9330 144.8230 198° South 349 402 16,800 -1,971 Descending FlightAware ADS-B
Thu 05:21:51 AM -36.9970 144.7980 197° South 324 373 15,300 -2,143 Descending FlightAware ADS-B
Thu 05:22:21 AM -37.0390 144.7820 197° South 320 368 14,300 -1,846 Descending FlightAware ADS-B
Thu 05:22:56 AM -37.0880 144.7630 197° South 318 366 13,300 -1,840 Descending FlightAware ADS-B
Thu 05:23:36 AM -37.1440 144.7410 197° South 315 362 12,000 -1,964 Descending FlightAware ADS-B
Thu 05:23:51 AM -37.1660 144.7360 190° South 320 368 11,500 -1,957 Descending FlightAware ADS-B
Thu 05:24:22 AM -37.2150 144.7420 174° South 325 374 10,500 -1,273 Descending FlightAware ADS-B
Thu 05:24:57 AM -37.2630 144.7520 171° South 299 344 10,100 -720 Descending FlightAware ADS-B
Thu 05:25:12 AM -37.2840 144.7560 171° South 290 334 9,900 -857 Descending FlightAware ADS-B
Thu 05:25:32 AM -37.3100 144.7620 170° South 282 325 9,600 -1,350 Descending FlightAware ADS-B
Thu 05:25:52 AM -37.3360 144.7670 171° South 276 318 9,000 -1,350 Descending FlightAware ADS-B
Thu 05:26:12 AM -37.3610 144.7730 169° South 267 307 8,700 -900 Descending FlightAware ADS-B
Thu 05:26:32 AM -37.3830 144.7790 168° South 260 299 8,400 -900 Descending FlightAware ADS-B
Thu 05:26:52 AM -37.4080 144.7850 169° South 260 299 8,100 -900 Descending FlightAware ADS-B
Thu 05:27:12 AM -37.4320 144.7910 169° South 263 303 7,800 -900 Descending FlightAware ADS-B
Thu 05:27:32 AM -37.4560 144.7970 169° South 263 303 7,500 -900 Descending FlightAware ADS-B
Thu 05:27:52 AM -37.4780 144.8020 170° South 264 304 7,200 -900 Descending FlightAware ADS-B
Thu 05:28:12 AM -37.5040 144.8070 171° South 262 302 6,900 -1,050 Descending FlightAware ADS-B
Thu 05:28:32 AM -37.5280 144.8120 171° South 256 295 6,500 -1,000 Descending FlightAware ADS-B
Thu 05:28:42 AM -37.5390 144.8180 157° South 259 298 6,400 -800 Descending FlightAware ADS-B
Thu 05:28:47 AM -37.5440 144.8210 155° Southeast 260 299 6,300 -600 Descending FlightAware ADS-B
Thu 05:28:52 AM -37.5470 144.8240 142° Southeast 262 302 6,300 -800 Level FlightAware ADS-B
Thu 05:29:02 AM -37.5570 144.8370 134° Southeast 266 306 6,100 -1,200 Descending FlightAware ADS-B
Thu 05:29:12 AM -37.5620 144.8500 116° Southeast 272 313 5,900 -900 Descending FlightAware ADS-B
Thu 05:29:22 AM -37.5650 144.8670 103° East 276 318 5,800 -800 Descending FlightAware ADS-B
Thu 05:29:42 AM -37.5660 144.8980 92° East 275 316 5,500 -933 Descending FlightAware ADS-B
Thu 05:30:07 AM -37.5680 144.9370 94° East 268 308 5,100 -1,050 Descending FlightAware ADS-B
Thu 05:30:22 AM -37.5690 144.9620 93° East 264 304 4,800 -900 Descending FlightAware ADS-B
Thu 05:30:47 AM -37.5710 144.9980 94° East 249 287 4,500 -600 Descending FlightAware ADS-B
Thu 05:30:52 AM -37.5730 145.0050 110° East 241 277 4,500 -600 Level FlightAware ADS-B
Thu 05:30:57 AM -37.5750 145.0120 110° East 237 273 4,400 -1,125 Descending FlightAware ADS-B
Thu 05:31:08 AM -37.5820 145.0230 129° Southeast 222 255 4,200 -857 Descending FlightAware ADS-B
Thu 05:31:18 AM -37.5900 145.0290 149° Southeast 210 242 4,100 -900 Descending FlightAware ADS-B
Thu 05:31:28 AM -37.5990 145.0320 165° South 198 228 3,900 -800 Descending FlightAware ADS-B
Thu 05:31:48 AM -37.6160 145.0310 183° South 184 212 3,700 -533 Descending FlightAware ADS-B
Thu 05:32:13 AM -37.6380 145.0290 184° South 178 205 3,500 -533 Descending FlightAware ADS-B
Thu 05:32:33 AM -37.6530 145.0280 183° South 170 196 3,300 -600 Descending FlightAware ADS-B
Thu 05:32:43 AM -37.6610 145.0250 197° South 160 184 3,200 -600 Descending FlightAware ADS-B
Thu 05:32:53 AM -37.6670 145.0190 218° Southwest 154 177 3,100 -800 Descending FlightAware ADS-B
Thu 05:32:58 AM -37.6680 145.0140 256° West 152 175 3,000 -800 Descending FlightAware ADS-B
Thu 05:33:08 AM -37.6700 145.0050 254° West 153 176 2,900 -750 Descending FlightAware ADS-B
Thu 05:33:38 AM -37.6700 144.9780 270° West 161 185 2,500 -840 Descending FlightAware ADS-B
Thu 05:33:58 AM -37.6690 144.9600 274° West 157 181 2,200 -900 Descending FlightAware ADS-B
Thu 05:34:18 AM -37.6680 144.9440 275° West 142 163 1,900 -857 Descending FlightAware ADS-B
Thu 05:34:33 AM -37.6670 144.9320 276° West 127 146 1,700 -686 Descending FlightAware ADS-B
Thu 05:34:53 AM -37.6660 144.9160 275° West 124 143 1,500 -600 Descending FlightAware ADS-B
Thu 05:35:13 AM -37.6650 144.9010 275° West 128 147 1,300 -600 Descending FlightAware ADS-B
Thu 05:35:33 AM -37.6640 144.8860 275° West 128 147 1,100 -612 Descending FlightAware ADS-B
Thu 05:36:02 AM -37.6630 144.8670 274° West 128 147 800 -333 Descending FlightAware ADS-B
Thu 05:36:27 AM -37.6630 144.8520 270° West 128 147 800  Level FlightAware ADS-B

Login

Don't have an account? Register now (free) for customized features, flight alerts, and more!